sensor_id;sensor_type;location;lat;lon;timestamp;P1;durP1;ratioP1;P2;durP2;ratioP2
56893;SDS011;43392;50.078;13.704;2023-06-22T00:01:56;13.52;;;7.40;;
56893;SDS011;43392;50.078;13.704;2023-06-22T00:04:22;12.50;;;6.90;;
56893;SDS011;43392;50.078;13.704;2023-06-22T00:06:49;10.75;;;6.60;;
56893;SDS011;43392;50.078;13.704;2023-06-22T00:09:15;10.27;;;6.18;;
56893;SDS011;43392;50.078;13.704;2023-06-22T00:11:42;12.40;;;6.75;;
56893;SDS011;43392;50.078;13.704;2023-06-22T00:14:08;13.40;;;6.95;;
56893;SDS011;43392;50.078;13.704;2023-06-22T00:16:35;9.82;;;6.72;;
56893;SDS011;43392;50.078;13.704;2023-06-22T00:19:03;10.57;;;6.75;;
56893;SDS011;43392;50.078;13.704;2023-06-22T00:21:30;12.50;;;6.90;;
56893;SDS011;43392;50.078;13.704;2023-06-22T00:23:57;11.55;;;6.10;;
56893;SDS011;43392;50.078;13.704;2023-06-22T00:26:24;11.50;;;5.57;;
56893;SDS011;43392;50.078;13.704;2023-06-22T00:28:50;8.40;;;5.72;;
56893;SDS011;43392;50.078;13.704;2023-06-22T00:31:17;11.30;;;5.35;;
56893;SDS011;43392;50.078;13.704;2023-06-22T00:33:43;10.10;;;5.93;;
56893;SDS011;43392;50.078;13.704;2023-06-22T00:36:11;9.32;;;5.30;;
56893;SDS011;43392;50.078;13.704;2023-06-22T00:38:41;10.90;;;6.10;;
56893;SDS011;43392;50.078;13.704;2023-06-22T00:41:07;10.52;;;5.80;;
56893;SDS011;43392;50.078;13.704;2023-06-22T00:43:34;10.27;;;6.25;;
56893;SDS011;43392;50.078;13.704;2023-06-22T00:46:01;10.35;;;6.10;;
56893;SDS011;43392;50.078;13.704;2023-06-22T00:48:28;9.70;;;6.10;;
56893;SDS011;43392;50.078;13.704;2023-06-22T00:50:54;9.85;;;6.05;;
56893;SDS011;43392;50.078;13.704;2023-06-22T00:53:22;10.48;;;5.60;;
56893;SDS011;43392;50.078;13.704;2023-06-22T00:55:49;8.80;;;5.63;;
56893;SDS011;43392;50.078;13.704;2023-06-22T00:58:17;9.75;;;5.93;;
56893;SDS011;43392;50.078;13.704;2023-06-22T01:00:47;14.10;;;5.95;;
56893;SDS011;43392;50.078;13.704;2023-06-22T01:03:13;11.95;;;6.43;;
56893;SDS011;43392;50.078;13.704;2023-06-22T01:05:42;11.93;;;6.43;;
56893;SDS011;43392;50.078;13.704;2023-06-22T01:08:17;10.65;;;6.45;;
56893;SDS011;43392;50.078;13.704;2023-06-22T01:10:57;11.07;;;6.88;;
56893;SDS011;43392;50.078;13.704;2023-06-22T01:13:32;9.85;;;6.22;;
56893;SDS011;43392;50.078;13.704;2023-06-22T01:16:05;11.40;;;6.95;;
56893;SDS011;43392;50.078;13.704;2023-06-22T01:18:36;11.10;;;6.43;;
56893;SDS011;43392;50.078;13.704;2023-06-22T01:21:06;11.38;;;6.70;;
56893;SDS011;43392;50.078;13.704;2023-06-22T01:23:46;11.18;;;6.60;;
56893;SDS011;43392;50.078;13.704;2023-06-22T01:26:20;10.25;;;6.18;;
56893;SDS011;43392;50.078;13.704;2023-06-22T01:28:56;8.93;;;5.80;;
56893;SDS011;43392;50.078;13.704;2023-06-22T01:33:55;9.73;;;5.90;;
56893;SDS011;43392;50.078;13.704;2023-06-22T01:36:24;11.95;;;5.75;;
56893;SDS011;43392;50.078;13.704;2023-06-22T01:38:52;13.43;;;5.97;;
56893;SDS011;43392;50.078;13.704;2023-06-22T01:41:20;11.55;;;6.35;;
56893;SDS011;43392;50.078;13.704;2023-06-22T01:43:48;12.25;;;6.20;;
56893;SDS011;43392;50.078;13.704;2023-06-22T01:46:17;10.30;;;6.07;;
56893;SDS011;43392;50.078;13.704;2023-06-22T01:48:45;12.23;;;6.05;;
56893;SDS011;43392;50.078;13.704;2023-06-22T01:51:12;11.30;;;6.40;;
56893;SDS011;43392;50.078;13.704;2023-06-22T01:53:39;11.70;;;6.47;;
56893;SDS011;43392;50.078;13.704;2023-06-22T01:56:05;11.25;;;6.03;;
56893;SDS011;43392;50.078;13.704;2023-06-22T01:58:32;10.68;;;5.95;;
56893;SDS011;43392;50.078;13.704;2023-06-22T02:01:00;13.50;;;6.22;;
56893;SDS011;43392;50.078;13.704;2023-06-22T02:03:37;9.70;;;6.32;;
56893;SDS011;43392;50.078;13.704;2023-06-22T02:06:09;10.73;;;5.75;;
56893;SDS011;43392;50.078;13.704;2023-06-22T02:08:41;11.30;;;6.03;;
56893;SDS011;43392;50.078;13.704;2023-06-22T02:11:13;9.90;;;6.32;;
56893;SDS011;43392;50.078;13.704;2023-06-22T02:13:42;12.13;;;6.22;;
56893;SDS011;43392;50.078;13.704;2023-06-22T02:16:10;14.32;;;6.57;;
56893;SDS011;43392;50.078;13.704;2023-06-22T02:18:39;13.60;;;6.07;;
56893;SDS011;43392;50.078;13.704;2023-06-22T02:21:12;9.23;;;6.05;;
56893;SDS011;43392;50.078;13.704;2023-06-22T02:23:39;11.02;;;5.90;;
56893;SDS011;43392;50.078;13.704;2023-06-22T02:26:05;10.27;;;5.93;;
56893;SDS011;43392;50.078;13.704;2023-06-22T02:28:32;9.43;;;5.93;;
56893;SDS011;43392;50.078;13.704;2023-06-22T02:30:59;12.10;;;6.60;;
56893;SDS011;43392;50.078;13.704;2023-06-22T02:33:25;9.23;;;6.05;;
56893;SDS011;43392;50.078;13.704;2023-06-22T02:35:53;9.95;;;5.85;;
56893;SDS011;43392;50.078;13.704;2023-06-22T02:38:20;11.02;;;6.07;;
56893;SDS011;43392;50.078;13.704;2023-06-22T02:40:49;10.05;;;5.88;;
56893;SDS011;43392;50.078;13.704;2023-06-22T02:43:16;10.45;;;6.00;;
56893;SDS011;43392;50.078;13.704;2023-06-22T02:45:42;10.85;;;6.13;;
56893;SDS011;43392;50.078;13.704;2023-06-22T02:48:09;9.98;;;5.63;;
56893;SDS011;43392;50.078;13.704;2023-06-22T02:50:36;8.80;;;6.00;;
56893;SDS011;43392;50.078;13.704;2023-06-22T02:53:04;11.27;;;6.38;;
56893;SDS011;43392;50.078;13.704;2023-06-22T02:55:31;9.88;;;6.18;;
56893;SDS011;43392;50.078;13.704;2023-06-22T02:57:57;14.05;;;6.57;;
56893;SDS011;43392;50.078;13.704;2023-06-22T03:00:24;9.77;;;6.03;;
56893;SDS011;43392;50.078;13.704;2023-06-22T03:02:55;11.50;;;5.82;;
56893;SDS011;43392;50.078;13.704;2023-06-22T03:05:23;11.02;;;6.00;;
56893;SDS011;43392;50.078;13.704;2023-06-22T03:07:49;9.85;;;5.95;;
56893;SDS011;43392;50.078;13.704;2023-06-22T03:10:17;9.63;;;5.50;;
56893;SDS011;43392;50.078;13.704;2023-06-22T03:12:44;9.00;;;5.80;;
56893;SDS011;43392;50.078;13.704;2023-06-22T03:15:11;12.13;;;6.15;;
56893;SDS011;43392;50.078;13.704;2023-06-22T03:17:39;10.07;;;5.57;;
56893;SDS011;43392;50.078;13.704;2023-06-22T03:20:07;11.32;;;6.10;;
56893;SDS011;43392;50.078;13.704;2023-06-22T03:22:36;10.68;;;6.00;;
56893;SDS011;43392;50.078;13.704;2023-06-22T03:25:03;10.98;;;5.45;;
56893;SDS011;43392;50.078;13.704;2023-06-22T03:27:36;10.38;;;5.88;;
56893;SDS011;43392;50.078;13.704;2023-06-22T03:30:03;11.55;;;5.60;;
56893;SDS011;43392;50.078;13.704;2023-06-22T03:32:30;12.20;;;6.25;;
56893;SDS011;43392;50.078;13.704;2023-06-22T03:34:56;11.30;;;5.72;;
56893;SDS011;43392;50.078;13.704;2023-06-22T03:37:24;10.95;;;5.55;;
56893;SDS011;43392;50.078;13.704;2023-06-22T03:39:50;9.40;;;5.88;;
56893;SDS011;43392;50.078;13.704;2023-06-22T03:42:17;12.57;;;6.28;;
56893;SDS011;43392;50.078;13.704;2023-06-22T03:44:45;9.60;;;5.25;;
56893;SDS011;43392;50.078;13.704;2023-06-22T03:47:12;11.30;;;6.15;;
56893;SDS011;43392;50.078;13.704;2023-06-22T03:49:39;10.25;;;5.95;;
56893;SDS011;43392;50.078;13.704;2023-06-22T03:52:06;9.27;;;5.90;;
56893;SDS011;43392;50.078;13.704;2023-06-22T03:54:33;12.32;;;6.40;;
56893;SDS011;43392;50.078;13.704;2023-06-22T03:56:59;9.10;;;6.10;;
56893;SDS011;43392;50.078;13.704;2023-06-22T03:59:26;10.68;;;5.80;;
56893;SDS011;43392;50.078;13.704;2023-06-22T04:01:54;9.43;;;6.05;;
56893;SDS011;43392;50.078;13.704;2023-06-22T04:04:20;11.85;;;6.50;;
56893;SDS011;43392;50.078;13.704;2023-06-22T04:06:47;11.85;;;5.60;;
56893;SDS011;43392;50.078;13.704;2023-06-22T04:09:13;10.48;;;6.10;;
56893;SDS011;43392;50.078;13.704;2023-06-22T04:11:40;10.88;;;6.00;;
56893;SDS011;43392;50.078;13.704;2023-06-22T04:14:07;12.95;;;6.82;;
56893;SDS011;43392;50.078;13.704;2023-06-22T04:16:33;12.55;;;6.32;;
56893;SDS011;43392;50.078;13.704;2023-06-22T04:19:01;12.23;;;6.22;;
56893;SDS011;43392;50.078;13.704;2023-06-22T04:21:28;12.20;;;6.63;;
56893;SDS011;43392;50.078;13.704;2023-06-22T04:23:54;11.80;;;6.57;;
56893;SDS011;43392;50.078;13.704;2023-06-22T04:26:21;11.75;;;7.75;;
56893;SDS011;43392;50.078;13.704;2023-06-22T04:28:48;13.93;;;9.07;;
56893;SDS011;43392;50.078;13.704;2023-06-22T04:31:16;12.75;;;8.43;;
56893;SDS011;43392;50.078;13.704;2023-06-22T04:33:43;12.40;;;7.72;;
56893;SDS011;43392;50.078;13.704;2023-06-22T04:36:11;15.10;;;8.80;;
56893;SDS011;43392;50.078;13.704;2023-06-22T04:38:38;13.82;;;8.00;;
56893;SDS011;43392;50.078;13.704;2023-06-22T04:41:05;11.70;;;7.07;;
56893;SDS011;43392;50.078;13.704;2023-06-22T04:43:33;12.82;;;8.23;;
56893;SDS011;43392;50.078;13.704;2023-06-22T04:46:00;14.07;;;7.55;;
56893;SDS011;43392;50.078;13.704;2023-06-22T04:48:28;11.50;;;7.05;;
56893;SDS011;43392;50.078;13.704;2023-06-22T04:50:57;13.65;;;7.10;;
56893;SDS011;43392;50.078;13.704;2023-06-22T04:53:31;13.35;;;7.78;;
56893;SDS011;43392;50.078;13.704;2023-06-22T04:55:57;15.27;;;8.65;;
56893;SDS011;43392;50.078;13.704;2023-06-22T04:58:24;17.02;;;10.25;;
56893;SDS011;43392;50.078;13.704;2023-06-22T05:00:53;14.25;;;7.63;;
56893;SDS011;43392;50.078;13.704;2023-06-22T05:03:22;15.65;;;8.00;;
56893;SDS011;43392;50.078;13.704;2023-06-22T05:05:50;11.05;;;7.85;;
56893;SDS011;43392;50.078;13.704;2023-06-22T05:08:17;13.43;;;7.97;;
56893;SDS011;43392;50.078;13.704;2023-06-22T05:10:45;25.92;;;8.68;;
56893;SDS011;43392;50.078;13.704;2023-06-22T05:13:12;13.32;;;7.78;;
56893;SDS011;43392;50.078;13.704;2023-06-22T05:15:38;15.95;;;8.40;;
56893;SDS011;43392;50.078;13.704;2023-06-22T05:18:05;13.85;;;8.65;;
56893;SDS011;43392;50.078;13.704;2023-06-22T05:20:32;12.23;;;8.45;;
56893;SDS011;43392;50.078;13.704;2023-06-22T05:23:01;13.45;;;8.73;;
56893;SDS011;43392;50.078;13.704;2023-06-22T05:25:27;15.82;;;7.80;;
56893;SDS011;43392;50.078;13.704;2023-06-22T05:27:56;12.93;;;8.00;;
56893;SDS011;43392;50.078;13.704;2023-06-22T05:30:23;14.20;;;8.52;;
56893;SDS011;43392;50.078;13.704;2023-06-22T05:32:49;13.35;;;8.82;;
56893;SDS011;43392;50.078;13.704;2023-06-22T05:35:17;11.93;;;8.38;;
56893;SDS011;43392;50.078;13.704;2023-06-22T05:37:44;16.20;;;9.02;;
56893;SDS011;43392;50.078;13.704;2023-06-22T05:40:11;14.88;;;9.43;;
56893;SDS011;43392;50.078;13.704;2023-06-22T05:42:38;15.18;;;8.80;;
56893;SDS011;43392;50.078;13.704;2023-06-22T05:45:07;14.75;;;9.25;;
56893;SDS011;43392;50.078;13.704;2023-06-22T05:47:34;52.65;;;27.85;;
56893;SDS011;43392;50.078;13.704;2023-06-22T05:50:00;40.78;;;26.42;;
56893;SDS011;43392;50.078;13.704;2023-06-22T05:52:31;39.05;;;20.70;;
56893;SDS011;43392;50.078;13.704;2023-06-22T05:54:58;25.80;;;14.73;;
56893;SDS011;43392;50.078;13.704;2023-06-22T05:57:24;29.88;;;15.50;;
56893;SDS011;43392;50.078;13.704;2023-06-22T05:59:51;24.88;;;14.25;;
56893;SDS011;43392;50.078;13.704;2023-06-22T06:02:20;18.25;;;11.88;;
56893;SDS011;43392;50.078;13.704;2023-06-22T06:04:46;19.48;;;10.95;;
56893;SDS011;43392;50.078;13.704;2023-06-22T06:07:13;14.27;;;9.68;;
56893;SDS011;43392;50.078;13.704;2023-06-22T06:09:40;21.63;;;10.45;;
56893;SDS011;43392;50.078;13.704;2023-06-22T06:12:07;14.45;;;10.07;;
56893;SDS011;43392;50.078;13.704;2023-06-22T06:14:34;14.82;;;10.07;;
56893;SDS011;43392;50.078;13.704;2023-06-22T06:17:00;15.57;;;10.02;;
56893;SDS011;43392;50.078;13.704;2023-06-22T06:19:28;17.30;;;9.88;;
56893;SDS011;43392;50.078;13.704;2023-06-22T06:21:55;18.00;;;10.18;;
56893;SDS011;43392;50.078;13.704;2023-06-22T06:24:21;13.75;;;10.05;;
56893;SDS011;43392;50.078;13.704;2023-06-22T06:26:48;15.00;;;9.73;;
56893;SDS011;43392;50.078;13.704;2023-06-22T06:29:15;13.85;;;9.30;;
56893;SDS011;43392;50.078;13.704;2023-06-22T06:31:42;15.07;;;9.80;;
56893;SDS011;43392;50.078;13.704;2023-06-22T06:34:09;16.00;;;10.25;;
56893;SDS011;43392;50.078;13.704;2023-06-22T06:36:37;14.68;;;9.90;;
56893;SDS011;43392;50.078;13.704;2023-06-22T06:39:03;15.25;;;9.85;;
56893;SDS011;43392;50.078;13.704;2023-06-22T06:41:30;15.68;;;9.95;;
56893;SDS011;43392;50.078;13.704;2023-06-22T06:43:57;15.20;;;10.35;;
56893;SDS011;43392;50.078;13.704;2023-06-22T06:46:23;15.68;;;10.38;;
56893;SDS011;43392;50.078;13.704;2023-06-22T06:48:50;15.73;;;10.52;;
56893;SDS011;43392;50.078;13.704;2023-06-22T06:51:16;14.50;;;10.13;;
56893;SDS011;43392;50.078;13.704;2023-06-22T06:53:44;16.77;;;11.30;;
56893;SDS011;43392;50.078;13.704;2023-06-22T06:56:11;19.23;;;11.52;;
56893;SDS011;43392;50.078;13.704;2023-06-22T06:58:40;16.02;;;11.07;;
56893;SDS011;43392;50.078;13.704;2023-06-22T07:01:07;17.75;;;13.18;;
56893;SDS011;43392;50.078;13.704;2023-06-22T07:03:34;16.55;;;10.57;;
56893;SDS011;43392;50.078;13.704;2023-06-22T07:06:00;14.68;;;10.02;;
56893;SDS011;43392;50.078;13.704;2023-06-22T07:08:27;13.85;;;9.57;;
56893;SDS011;43392;50.078;13.704;2023-06-22T07:10:55;16.63;;;10.75;;
56893;SDS011;43392;50.078;13.704;2023-06-22T07:13:22;16.45;;;10.77;;
56893;SDS011;43392;50.078;13.704;2023-06-22T07:15:49;13.43;;;10.00;;
56893;SDS011;43392;50.078;13.704;2023-06-22T07:18:15;15.00;;;10.30;;
56893;SDS011;43392;50.078;13.704;2023-06-22T07:20:42;16.55;;;10.35;;
56893;SDS011;43392;50.078;13.704;2023-06-22T07:23:08;13.93;;;10.45;;
56893;SDS011;43392;50.078;13.704;2023-06-22T07:25:35;15.52;;;10.30;;
56893;SDS011;43392;50.078;13.704;2023-06-22T07:28:03;13.48;;;10.15;;
56893;SDS011;43392;50.078;13.704;2023-06-22T07:30:31;15.10;;;9.57;;
56893;SDS011;43392;50.078;13.704;2023-06-22T07:32:59;17.90;;;9.98;;
56893;SDS011;43392;50.078;13.704;2023-06-22T07:35:29;14.48;;;9.60;;
56893;SDS011;43392;50.078;13.704;2023-06-22T07:37:55;15.30;;;9.85;;
56893;SDS011;43392;50.078;13.704;2023-06-22T07:40:22;12.95;;;9.98;;
56893;SDS011;43392;50.078;13.704;2023-06-22T07:42:49;14.48;;;10.15;;
56893;SDS011;43392;50.078;13.704;2023-06-22T07:45:18;15.68;;;9.63;;
56893;SDS011;43392;50.078;13.704;2023-06-22T07:47:44;13.90;;;10.07;;
56893;SDS011;43392;50.078;13.704;2023-06-22T07:50:11;14.02;;;9.65;;
56893;SDS011;43392;50.078;13.704;2023-06-22T07:52:38;15.48;;;10.00;;
56893;SDS011;43392;50.078;13.704;2023-06-22T07:55:04;13.30;;;9.27;;
56893;SDS011;43392;50.078;13.704;2023-06-22T07:57:31;12.82;;;9.55;;
56893;SDS011;43392;50.078;13.704;2023-06-22T07:59:58;13.77;;;8.98;;
56893;SDS011;43392;50.078;13.704;2023-06-22T08:02:27;12.02;;;8.90;;
56893;SDS011;43392;50.078;13.704;2023-06-22T08:04:53;13.18;;;9.52;;
56893;SDS011;43392;50.078;13.704;2023-06-22T08:07:20;12.93;;;8.77;;
56893;SDS011;43392;50.078;13.704;2023-06-22T08:09:47;15.40;;;9.40;;
56893;SDS011;43392;50.078;13.704;2023-06-22T08:12:15;13.88;;;8.88;;
56893;SDS011;43392;50.078;13.704;2023-06-22T08:14:42;15.80;;;8.98;;
56893;SDS011;43392;50.078;13.704;2023-06-22T08:17:09;13.02;;;8.05;;
56893;SDS011;43392;50.078;13.704;2023-06-22T08:19:38;13.68;;;8.38;;
56893;SDS011;43392;50.078;13.704;2023-06-22T08:22:04;15.15;;;7.70;;
56893;SDS011;43392;50.078;13.704;2023-06-22T08:24:31;11.60;;;8.30;;
56893;SDS011;43392;50.078;13.704;2023-06-22T08:26:58;12.90;;;8.77;;
56893;SDS011;43392;50.078;13.704;2023-06-22T08:29:25;11.93;;;7.90;;
56893;SDS011;43392;50.078;13.704;2023-06-22T08:31:51;13.25;;;9.10;;
56893;SDS011;43392;50.078;13.704;2023-06-22T10:35:44;12.77;;;7.97;;
56893;SDS011;43392;50.078;13.704;2023-06-22T10:38:11;10.25;;;7.43;;
56893;SDS011;43392;50.078;13.704;2023-06-22T10:40:38;12.85;;;7.70;;
56893;SDS011;43392;50.078;13.704;2023-06-22T10:43:05;8.85;;;6.88;;
56893;SDS011;43392;50.078;13.704;2023-06-22T10:45:32;11.40;;;7.20;;
56893;SDS011;43392;50.078;13.704;2023-06-22T10:48:04;10.48;;;7.93;;
56893;SDS011;43392;50.078;13.704;2023-06-22T10:50:35;10.75;;;7.32;;
56893;SDS011;43392;50.078;13.704;2023-06-22T10:53:20;10.23;;;7.07;;
56893;SDS011;43392;50.078;13.704;2023-06-22T10:55:46;10.15;;;6.82;;
56893;SDS011;43392;50.078;13.704;2023-06-22T10:58:13;12.77;;;7.15;;
56893;SDS011;43392;50.078;13.704;2023-06-22T11:00:39;11.40;;;7.15;;
56893;SDS011;43392;50.078;13.704;2023-06-22T11:03:06;10.25;;;6.95;;
56893;SDS011;43392;50.078;13.704;2023-06-22T11:05:33;8.90;;;6.05;;
56893;SDS011;43392;50.078;13.704;2023-06-22T11:07:59;9.93;;;7.30;;
56893;SDS011;43392;50.078;13.704;2023-06-22T11:10:27;10.80;;;6.68;;
56893;SDS011;43392;50.078;13.704;2023-06-22T11:12:54;11.85;;;6.78;;
56893;SDS011;43392;50.078;13.704;2023-06-22T11:15:22;10.27;;;7.13;;
56893;SDS011;43392;50.078;13.704;2023-06-22T11:17:49;10.68;;;6.47;;
56893;SDS011;43392;50.078;13.704;2023-06-22T11:20:16;10.93;;;6.78;;
56893;SDS011;43392;50.078;13.704;2023-06-22T11:22:42;11.95;;;7.10;;
56893;SDS011;43392;50.078;13.704;2023-06-22T11:25:09;9.65;;;6.93;;
56893;SDS011;43392;50.078;13.704;2023-06-22T11:27:39;8.73;;;6.47;;
56893;SDS011;43392;50.078;13.704;2023-06-22T11:30:06;10.02;;;6.70;;
56893;SDS011;43392;50.078;13.704;2023-06-22T11:32:33;10.82;;;6.43;;
56893;SDS011;43392;50.078;13.704;2023-06-22T11:35:00;10.60;;;6.35;;
56893;SDS011;43392;50.078;13.704;2023-06-22T11:37:27;11.68;;;6.80;;
56893;SDS011;43392;50.078;13.704;2023-06-22T11:39:54;10.75;;;6.85;;
56893;SDS011;43392;50.078;13.704;2023-06-22T11:42:20;13.80;;;6.20;;
56893;SDS011;43392;50.078;13.704;2023-06-22T11:44:50;11.93;;;6.93;;
56893;SDS011;43392;50.078;13.704;2023-06-22T11:47:16;17.40;;;6.60;;
56893;SDS011;43392;50.078;13.704;2023-06-22T11:49:43;10.40;;;6.45;;
56893;SDS011;43392;50.078;13.704;2023-06-22T11:52:09;10.60;;;6.13;;
56893;SDS011;43392;50.078;13.704;2023-06-22T11:54:36;10.45;;;6.45;;
56893;SDS011;43392;50.078;13.704;2023-06-22T11:57:03;9.57;;;6.30;;
56893;SDS011;43392;50.078;13.704;2023-06-22T11:59:30;10.50;;;6.13;;
56893;SDS011;43392;50.078;13.704;2023-06-22T12:02:04;10.30;;;6.82;;
56893;SDS011;43392;50.078;13.704;2023-06-22T12:04:32;13.55;;;6.32;;
56893;SDS011;43392;50.078;13.704;2023-06-22T12:06:59;10.13;;;6.30;;
56893;SDS011;43392;50.078;13.704;2023-06-22T12:09:26;11.30;;;6.95;;
56893;SDS011;43392;50.078;13.704;2023-06-22T12:11:52;12.45;;;6.25;;
56893;SDS011;43392;50.078;13.704;2023-06-22T12:14:19;12.80;;;6.25;;
56893;SDS011;43392;50.078;13.704;2023-06-22T12:16:46;8.93;;;5.90;;
56893;SDS011;43392;50.078;13.704;2023-06-22T12:19:16;11.63;;;6.80;;
56893;SDS011;43392;50.078;13.704;2023-06-22T12:21:42;11.48;;;5.88;;
56893;SDS011;43392;50.078;13.704;2023-06-22T12:24:11;12.05;;;6.65;;
56893;SDS011;43392;50.078;13.704;2023-06-22T12:26:38;9.38;;;5.65;;
56893;SDS011;43392;50.078;13.704;2023-06-22T12:29:04;10.40;;;6.35;;
56893;SDS011;43392;50.078;13.704;2023-06-22T12:31:31;8.57;;;6.05;;
56893;SDS011;43392;50.078;13.704;2023-06-22T12:33:59;11.85;;;6.65;;
56893;SDS011;43392;50.078;13.704;2023-06-22T12:36:27;13.60;;;6.38;;
56893;SDS011;43392;50.078;13.704;2023-06-22T12:38:54;11.20;;;6.32;;
56893;SDS011;43392;50.078;13.704;2023-06-22T12:41:21;9.77;;;5.95;;
56893;SDS011;43392;50.078;13.704;2023-06-22T12:43:47;12.38;;;6.47;;
56893;SDS011;43392;50.078;13.704;2023-06-22T12:46:14;9.75;;;6.32;;
56893;SDS011;43392;50.078;13.704;2023-06-22T12:48:41;8.85;;;5.88;;
56893;SDS011;43392;50.078;13.704;2023-06-22T12:51:08;11.02;;;6.38;;
56893;SDS011;43392;50.078;13.704;2023-06-22T12:53:36;12.23;;;6.03;;
56893;SDS011;43392;50.078;13.704;2023-06-22T12:56:03;11.80;;;6.05;;
56893;SDS011;43392;50.078;13.704;2023-06-22T12:58:30;12.35;;;6.10;;
56893;SDS011;43392;50.078;13.704;2023-06-22T13:00:56;10.02;;;6.20;;
56893;SDS011;43392;50.078;13.704;2023-06-22T13:03:23;11.65;;;5.88;;
56893;SDS011;43392;50.078;13.704;2023-06-22T13:05:52;9.10;;;5.70;;
56893;SDS011;43392;50.078;13.704;2023-06-22T13:08:19;12.20;;;5.72;;
56893;SDS011;43392;50.078;13.704;2023-06-22T13:10:47;13.55;;;6.15;;
56893;SDS011;43392;50.078;13.704;2023-06-22T13:13:14;10.07;;;6.25;;
56893;SDS011;43392;50.078;13.704;2023-06-22T13:15:40;12.25;;;5.95;;
56893;SDS011;43392;50.078;13.704;2023-06-22T13:18:07;10.32;;;5.95;;
56893;SDS011;43392;50.078;13.704;2023-06-22T13:20:33;15.00;;;6.05;;
56893;SDS011;43392;50.078;13.704;2023-06-22T13:23:00;9.30;;;6.00;;
56893;SDS011;43392;50.078;13.704;2023-06-22T13:25:27;11.52;;;6.50;;
56893;SDS011;43392;50.078;13.704;2023-06-22T13:27:55;10.85;;;5.95;;
56893;SDS011;43392;50.078;13.704;2023-06-22T13:30:21;13.60;;;6.00;;
56893;SDS011;43392;50.078;13.704;2023-06-22T13:32:48;10.27;;;6.30;;
56893;SDS011;43392;50.078;13.704;2023-06-22T13:35:14;12.45;;;6.10;;
56893;SDS011;43392;50.078;13.704;2023-06-22T13:37:41;11.07;;;6.07;;
56893;SDS011;43392;50.078;13.704;2023-06-22T13:40:08;10.90;;;5.93;;
56893;SDS011;43392;50.078;13.704;2023-06-22T13:42:35;11.40;;;6.10;;
56893;SDS011;43392;50.078;13.704;2023-06-22T13:45:03;10.90;;;5.97;;
56893;SDS011;43392;50.078;13.704;2023-06-22T13:47:31;12.80;;;6.57;;
56893;SDS011;43392;50.078;13.704;2023-06-22T13:49:57;11.95;;;6.35;;
56893;SDS011;43392;50.078;13.704;2023-06-22T13:52:24;10.98;;;5.50;;
56893;SDS011;43392;50.078;13.704;2023-06-22T13:54:51;11.82;;;6.22;;
56893;SDS011;43392;50.078;13.704;2023-06-22T13:57:18;12.70;;;6.25;;
56893;SDS011;43392;50.078;13.704;2023-06-22T13:59:44;11.60;;;6.15;;
56893;SDS011;43392;50.078;13.704;2023-06-22T14:02:12;11.95;;;6.15;;
56893;SDS011;43392;50.078;13.704;2023-06-22T14:04:39;12.35;;;6.18;;
56893;SDS011;43392;50.078;13.704;2023-06-22T14:07:06;11.30;;;6.20;;
56893;SDS011;43392;50.078;13.704;2023-06-22T14:09:32;12.57;;;6.70;;
56893;SDS011;43392;50.078;13.704;2023-06-22T14:12:02;13.38;;;6.57;;
56893;SDS011;43392;50.078;13.704;2023-06-22T14:14:30;10.80;;;6.25;;
56893;SDS011;43392;50.078;13.704;2023-06-22T14:16:57;10.30;;;5.93;;
56893;SDS011;43392;50.078;13.704;2023-06-22T14:19:25;13.48;;;5.85;;
56893;SDS011;43392;50.078;13.704;2023-06-22T14:21:52;11.10;;;5.60;;
56893;SDS011;43392;50.078;13.704;2023-06-22T14:24:19;11.55;;;6.20;;
56893;SDS011;43392;50.078;13.704;2023-06-22T14:26:45;10.75;;;5.93;;
56893;SDS011;43392;50.078;13.704;2023-06-22T14:29:12;11.38;;;6.13;;
56893;SDS011;43392;50.078;13.704;2023-06-22T14:31:38;9.98;;;5.97;;
56893;SDS011;43392;50.078;13.704;2023-06-22T14:34:05;9.60;;;5.78;;
56893;SDS011;43392;50.078;13.704;2023-06-22T14:36:33;10.55;;;6.07;;
56893;SDS011;43392;50.078;13.704;2023-06-22T14:39:00;11.77;;;6.43;;
56893;SDS011;43392;50.078;13.704;2023-06-22T14:41:26;11.70;;;6.38;;
56893;SDS011;43392;50.078;13.704;2023-06-22T14:43:53;10.95;;;6.18;;
56893;SDS011;43392;50.078;13.704;2023-06-22T14:46:19;11.52;;;6.97;;
56893;SDS011;43392;50.078;13.704;2023-06-22T14:48:46;10.35;;;5.97;;
56893;SDS011;43392;50.078;13.704;2023-06-22T14:51:13;11.50;;;6.47;;
56893;SDS011;43392;50.078;13.704;2023-06-22T14:53:41;10.80;;;6.50;;
56893;SDS011;43392;50.078;13.704;2023-06-22T14:56:08;12.38;;;6.65;;
56893;SDS011;43392;50.078;13.704;2023-06-22T14:58:35;13.07;;;6.57;;
56893;SDS011;43392;50.078;13.704;2023-06-22T15:01:02;14.43;;;6.00;;
56893;SDS011;43392;50.078;13.704;2023-06-22T15:03:29;10.30;;;6.07;;
56893;SDS011;43392;50.078;13.704;2023-06-22T15:05:57;12.27;;;6.13;;
56893;SDS011;43392;50.078;13.704;2023-06-22T15:08:24;10.27;;;6.13;;
56893;SDS011;43392;50.078;13.704;2023-06-22T15:10:53;17.65;;;5.95;;
56893;SDS011;43392;50.078;13.704;2023-06-22T15:13:20;11.48;;;6.60;;
56893;SDS011;43392;50.078;13.704;2023-06-22T15:15:47;10.63;;;6.13;;
56893;SDS011;43392;50.078;13.704;2023-06-22T15:18:14;12.80;;;6.38;;
56893;SDS011;43392;50.078;13.704;2023-06-22T15:20:41;10.95;;;6.07;;
56893;SDS011;43392;50.078;13.704;2023-06-22T15:23:09;12.75;;;5.43;;
56893;SDS011;43392;50.078;13.704;2023-06-22T15:25:36;9.60;;;5.93;;
56893;SDS011;43392;50.078;13.704;2023-06-22T15:28:04;10.82;;;6.22;;
56893;SDS011;43392;50.078;13.704;2023-06-22T15:30:31;12.45;;;6.13;;
56893;SDS011;43392;50.078;13.704;2023-06-22T15:32:57;11.60;;;6.55;;
56893;SDS011;43392;50.078;13.704;2023-06-22T15:35:24;10.00;;;6.20;;
56893;SDS011;43392;50.078;13.704;2023-06-22T15:37:51;11.43;;;5.88;;
56893;SDS011;43392;50.078;13.704;2023-06-22T15:40:17;11.10;;;5.80;;
56893;SDS011;43392;50.078;13.704;2023-06-22T15:42:44;10.63;;;5.70;;
56893;SDS011;43392;50.078;13.704;2023-06-22T15:45:13;11.48;;;6.22;;
56893;SDS011;43392;50.078;13.704;2023-06-22T15:47:40;11.65;;;6.25;;
56893;SDS011;43392;50.078;13.704;2023-06-22T15:50:07;10.73;;;5.88;;
56893;SDS011;43392;50.078;13.704;2023-06-22T15:52:34;11.73;;;5.90;;
56893;SDS011;43392;50.078;13.704;2023-06-22T15:55:00;12.60;;;6.05;;
56893;SDS011;43392;50.078;13.704;2023-06-22T15:57:27;11.30;;;6.28;;
56893;SDS011;43392;50.078;13.704;2023-06-22T15:59:54;14.30;;;6.00;;
56893;SDS011;43392;50.078;13.704;2023-06-22T16:02:22;11.35;;;5.90;;
56893;SDS011;43392;50.078;13.704;2023-06-22T16:04:49;10.25;;;5.82;;
56893;SDS011;43392;50.078;13.704;2023-06-22T16:07:15;12.20;;;6.00;;
56893;SDS011;43392;50.078;13.704;2023-06-22T16:09:42;10.20;;;5.75;;
56893;SDS011;43392;50.078;13.704;2023-06-22T16:12:08;10.48;;;5.60;;
56893;SDS011;43392;50.078;13.704;2023-06-22T16:14:35;9.13;;;5.45;;
56893;SDS011;43392;50.078;13.704;2023-06-22T16:17:02;9.95;;;5.35;;
56893;SDS011;43392;50.078;13.704;2023-06-22T16:19:31;11.50;;;5.75;;
56893;SDS011;43392;50.078;13.704;2023-06-22T16:21:57;10.05;;;5.63;;
56893;SDS011;43392;50.078;13.704;2023-06-22T16:24:24;11.90;;;5.25;;
56893;SDS011;43392;50.078;13.704;2023-06-22T16:26:50;10.27;;;5.22;;